Time;durP1;ratioP1;P1;durP2;ratioP2;P2;SDS_P1;SDS_P2;PMS_P1;PMS_P2;Temp;Humidity;BMP_temperature;BMP_pressure;BME280_temperature;BME280_humidity;BME280_pressure;Samples;Min_cycle;Max_cycle;Signal;HPM_P1;HPM_P2
2022/11/27 00:00:08;;;;;;;31.37;21.67;;;1.80;99.90;;;1.61;92.62;99307.75;5027629;28;20625;-74
2022/11/27 00:02:35;;;;;;;29.10;20.50;;;1.80;99.90;;;1.54;92.42;99288.78;5044709;28;20437;-74
2022/11/27 00:05:07;;;;;;;31.03;19.20;;;1.80;99.90;;;1.45;92.61;99286.03;5035108;28;20456;-75
2022/11/27 00:07:34;;;;;;;28.03;19.53;;;1.80;99.90;;;1.70;91.47;99301.66;5030036;28;20507;-77
2022/11/27 00:10:02;;;;;;;23.83;17.90;;;1.70;99.90;;;1.56;92.72;99301.94;5030512;28;20470;-76
2022/11/27 00:12:31;;;;;;;25.63;19.27;;;1.70;99.90;;;1.68;92.10;99290.28;5029217;28;20452;-74
2022/11/27 00:14:58;;;;;;;28.50;20.07;;;1.80;99.90;;;1.50;92.74;99265.16;5034017;28;20757;-75
2022/11/27 00:17:26;;;;;;;30.03;20.57;;;1.80;99.90;;;1.65;93.57;99274.56;5031706;28;20457;-73
2022/11/27 00:19:54;;;;;;;31.00;20.63;;;1.90;99.90;;;1.63;93.36;99273.84;5041168;28;20459;-75
2022/11/27 00:22:22;;;;;;;24.90;18.73;;;2.00;99.90;;;1.56;93.68;99256.66;5019303;28;20839;-74
2022/11/27 00:24:50;;;;;;;30.87;19.77;;;2.00;99.90;;;1.61;93.46;99266.94;5025477;28;20525;-73
2022/11/27 00:27:17;;;;;;;29.00;19.80;;;2.00;99.90;;;1.53;93.88;99259.59;5021864;28;20480;-74
2022/11/27 00:29:44;;;;;;;28.07;19.83;;;2.00;99.90;;;1.53;93.86;99270.25;5030502;28;20462;-75
2022/11/27 00:32:13;;;;;;;27.07;18.63;;;1.90;99.90;;;1.59;93.03;99250.25;5027306;28;20456;-74
2022/11/27 00:34:40;;;;;;;29.60;20.47;;;1.90;99.90;;;1.42;93.30;99241.84;5023033;28;20949;-72
2022/11/27 00:37:07;;;;;;;26.87;19.13;;;1.80;99.90;;;1.35;93.18;99238.81;5029652;28;20551;-75
2022/11/27 00:39:36;;;;;;;37.53;19.83;;;1.80;99.90;;;1.14;93.95;99236.09;5029552;28;20462;-75
2022/11/27 00:42:04;;;;;;;34.80;19.80;;;1.70;99.90;;;1.13;94.83;99218.44;5040684;28;20464;-75
2022/11/27 00:44:31;;;;;;;33.53;18.90;;;1.60;99.90;;;1.33;93.45;99246.09;5020475;28;20860;-73
2022/11/27 00:46:58;;;;;;;31.03;18.87;;;1.60;99.90;;;1.26;93.38;99252.88;5023924;28;22668;-74
2022/11/27 00:49:25;;;;;;;28.57;17.93;;;1.60;99.90;;;1.12;93.11;99228.22;5039739;28;20442;-74
2022/11/27 00:51:53;;;;;;;30.53;19.87;;;1.50;99.90;;;1.00;93.38;99226.59;5029533;28;20463;-74
2022/11/27 00:54:20;;;;;;;29.83;19.20;;;1.40;99.90;;;0.95;94.30;99245.59;5027221;28;20448;-75
2022/11/27 00:56:49;;;;;;;33.47;20.03;;;1.40;99.90;;;1.12;93.07;99254.84;5026899;28;20467;-73
2022/11/27 00:59:16;;;;;;;31.70;20.60;;;1.40;99.90;;;0.84;93.16;99219.84;5035220;28;20850;-74
2022/11/27 01:01:44;;;;;;;28.00;19.70;;;1.30;99.90;;;1.07;93.32;99245.56;5026031;28;20441;-75
2022/11/27 01:04:14;;;;;;;30.80;19.13;;;1.30;99.90;;;1.04;92.91;99251.13;5023525;28;20517;-74
2022/11/27 01:06:42;;;;;;;27.90;19.47;;;1.20;99.90;;;0.98;92.41;99247.13;5030066;28;20576;-74
2022/11/27 01:09:11;;;;;;;28.43;18.00;;;1.20;99.90;;;0.91;93.12;99249.47;5024749;28;20466;-75
2022/11/27 01:11:39;;;;;;;32.70;20.80;;;1.10;99.90;;;0.82;92.43;99232.41;5022534;28;20473;-74
2022/11/27 01:14:13;;;;;;;27.23;18.30;;;1.10;99.90;;;0.79;92.81;99248.63;5017856;28;20460;-75
2022/11/27 01:16:40;;;;;;;30.17;18.73;;;1.10;99.90;;;0.73;92.96;99242.94;5041086;28;20452;-76
2022/11/27 01:19:09;;;;;;;32.80;19.57;;;1.10;99.90;;;0.60;93.55;99235.09;5029043;28;20483;-75
2022/11/27 01:21:36;;;;;;;23.73;17.20;;;1.00;99.90;;;0.61;93.22;99242.09;5027759;28;20444;-75
2022/11/27 01:24:05;;;;;;;28.27;17.70;;;1.00;99.90;;;0.58;94.00;99229.88;5021156;28;20470;-76
2022/11/27 01:26:32;;;;;;;31.37;19.37;;;1.00;99.90;;;0.76;92.90;99232.91;5018811;28;20453;-74
2022/11/27 01:29:00;;;;;;;28.17;18.27;;;1.00;99.90;;;0.63;92.81;99230.38;5027886;28;20499;-74
2022/11/27 01:31:32;;;;;;;29.90;18.90;;;0.90;99.90;;;0.51;93.83;99237.50;5028061;28;20969;-75
2022/11/27 01:34:03;;;;;;;34.17;21.53;;;0.90;99.90;;;0.39;93.46;99214.56;5030101;28;20459;-75
2022/11/27 01:36:32;;;;;;;27.80;18.67;;;0.90;99.90;;;0.60;92.67;99227.13;5030151;28;20453;-73
2022/11/27 01:39:00;;;;;;;29.43;19.40;;;0.90;99.90;;;0.60;92.85;99225.28;5020830;28;20460;-73
2022/11/27 01:41:30;;;;;;;25.13;17.90;;;0.90;99.90;;;0.53;92.47;99216.09;5029861;28;20498;-76
2022/11/27 01:44:00;;;;;;;31.47;17.97;;;0.80;99.90;;;0.52;92.70;99231.22;5032756;28;20451;-75
2022/11/27 01:46:37;;;;;;;32.93;19.80;;;0.80;99.90;;;0.54;92.23;99223.97;5026586;28;20796;-74
2022/11/27 01:49:24;;;;;;;35.30;19.93;;;0.80;99.90;;;0.40;92.61;99201.13;5044053;28;20514;-74
2022/11/27 01:51:56;;;;;;;27.60;18.70;;;0.80;99.90;;;0.51;92.27;99224.19;5038849;28;20480;-76
2022/11/27 01:54:27;;;;;;;29.50;18.53;;;0.70;99.90;;;0.38;92.65;99210.19;5030511;28;20526;-73
2022/11/27 01:56:58;;;;;;;28.80;18.07;;;0.70;99.90;;;0.51;92.25;99212.72;5028119;28;20483;-75
2022/11/27 01:59:26;;;;;;;28.23;18.50;;;0.70;99.90;;;0.07;92.52;99162.94;5047862;28;21041;-76
2022/11/27 02:01:55;;;;;;;23.73;17.27;;;0.70;99.90;;;-0.35;92.14;99075.84;5036724;28;20789;-73
2022/11/27 02:04:22;;;;;;;24.83;16.37;;;0.70;99.90;;;0.43;92.95;99208.03;5040313;28;20449;-73
2022/11/27 02:06:49;;;;;;;28.10;18.47;;;0.70;99.90;;;0.42;93.04;99203.66;5031903;28;20458;-74
2022/11/27 02:09:18;;;;;;;29.47;17.87;;;0.70;99.90;;;0.41;92.75;99196.66;5032122;28;20464;-75
2022/11/27 02:11:54;;;;;;;30.43;18.33;;;0.70;99.90;;;0.40;92.49;99182.50;5029954;28;20482;-74
2022/11/27 02:14:32;;;;;;;25.50;16.90;;;0.60;99.90;;;0.40;91.94;99184.34;5025140;28;20472;-73
2022/11/27 02:17:08;;;;;;;24.37;16.70;;;0.60;99.90;;;0.33;91.94;99176.00;5025192;28;20466;-75
2022/11/27 02:20:02;;;;;;;35.67;18.27;;;0.50;99.90;;;0.23;92.60;99167.91;5025420;28;20468;-76
2022/11/27 02:22:50;;;;;;;30.97;18.50;;;0.50;99.90;;;0.33;92.08;99180.44;5025758;28;20456;-76
2022/11/27 02:25:31;;;;;;;29.67;17.53;;;0.50;99.90;;;0.26;92.83;99178.28;5028737;28;20453;-74
2022/11/27 02:28:24;;;;;;;24.53;16.40;;;0.50;99.90;;;0.08;93.22;99169.94;5047064;28;21021;-79
2022/11/27 02:31:01;;;;;;;32.50;17.27;;;0.50;99.90;;;-0.09;94.02;99151.81;5027237;28;20476;-74
2022/11/27 02:33:31;;;;;;;27.57;17.80;;;0.50;99.90;;;0.14;92.88;99173.94;5032139;28;20462;-75
2022/11/27 02:36:06;;;;;;;25.50;16.50;;;0.50;99.90;;;0.11;92.03;99169.69;5022383;28;20452;-76
2022/11/27 02:38:38;;;;;;;24.77;16.27;;;0.40;99.90;;;-0.25;92.02;99123.78;5044211;28;20845;-74
2022/11/27 02:41:11;;;;;;;22.40;15.87;;;0.30;99.90;;;0.02;91.77;99156.28;5044499;28;20507;-78
2022/11/27 02:43:41;;;;;;;19.53;14.57;;;0.20;99.90;;;0.11;91.47;99185.63;5044306;28;20922;-76
2022/11/27 02:46:11;;;;;;;23.47;16.07;;;0.20;99.90;;;-0.12;91.30;99160.84;5044549;28;20865;-74
2022/11/27 02:48:44;;;;;;;24.30;15.73;;;0.10;99.90;;;-0.01;91.58;99175.97;5030344;28;20785;-77
2022/11/27 02:51:13;;;;;;;27.87;17.90;;;0.00;99.90;;;-0.63;90.88;99061.19;5034538;28;20568;-78
2022/11/27 02:53:48;;;;;;;26.47;16.30;;;0.10;99.90;;;0.09;90.93;99160.16;5030604;28;21024;-78
2022/11/27 02:56:20;;;;;;;26.03;17.97;;;0.10;99.90;;;0.15;90.13;99154.34;5030062;28;20464;-75
2022/11/27 02:58:50;;;;;;;25.20;16.80;;;0.30;99.90;;;-0.19;90.09;99102.03;5023712;28;20454;-73
2022/11/27 03:01:25;;;;;;;25.47;17.90;;;0.40;99.90;;;0.06;90.38;99157.72;5015647;28;20457;-76
2022/11/27 03:03:57;;;;;;;29.10;17.27;;;0.40;99.90;;;0.07;91.00;99160.28;5034038;28;20791;-73
2022/11/27 03:06:30;;;;;;;30.87;18.10;;;0.40;99.90;;;-0.10;91.55;99145.63;5023784;28;20448;-74
2022/11/27 03:09:03;;;;;;;26.63;17.10;;;0.30;99.90;;;-0.26;92.66;99123.88;5032833;28;20473;-76
2022/11/27 03:11:31;;;;;;;33.83;19.53;;;0.30;99.90;;;-0.16;93.04;99141.66;5024918;28;20474;-75
2022/11/27 03:14:07;;;;;;;31.03;18.90;;;0.30;99.90;;;-0.14;93.06;99144.19;5028467;28;20457;-75
2022/11/27 03:16:41;;;;;;;27.10;16.27;;;0.30;99.90;;;-0.50;92.78;99069.06;5047317;28;20460;-75
2022/11/27 03:19:16;;;;;;;34.10;18.33;;;0.30;99.90;;;-0.79;92.70;99037.66;5044721;28;20445;-74
2022/11/27 03:21:48;;;;;;;29.00;16.30;;;0.20;99.90;;;-0.14;92.86;99120.28;5047948;28;20884;-75
2022/11/27 03:24:15;;;;;;;24.40;16.80;;;0.20;99.90;;;-0.86;93.03;99030.13;5046464;28;20473;-74
2022/11/27 03:26:43;;;;;;;28.67;17.60;;;0.20;99.90;;;-0.19;92.96;99128.59;5028731;28;20452;-75
2022/11/27 03:29:15;;;;;;;22.13;15.27;;;0.20;99.90;;;-0.42;93.23;99101.16;5023326;28;20527;-74
2022/11/27 03:31:44;;;;;;;25.90;15.07;;;0.10;99.90;;;-0.37;92.91;99114.09;5035718;28;20483;-74
2022/11/27 03:34:12;;;;;;;23.50;16.83;;;0.10;99.90;;;-0.16;92.41;99135.50;5026192;28;20950;-75
2022/11/27 03:36:40;;;;;;;27.20;17.93;;;0.10;99.90;;;-0.27;92.50;99128.38;5030125;28;20486;-74
2022/11/27 03:39:07;;;;;;;22.10;15.97;;;0.10;99.90;;;-0.31;92.06;99117.13;5026222;28;20463;-76
2022/11/27 03:41:43;;;;;;;27.50;16.20;;;0.10;99.90;;;-0.36;92.89;99124.63;5028857;28;20455;-74
2022/11/27 03:44:22;;;;;;;22.30;15.50;;;0.10;99.90;;;-0.49;92.43;99098.13;5026369;28;20463;-74
2022/11/27 03:47:03;;;;;;;21.03;13.83;;;0.00;99.90;;;-0.41;91.87;99100.19;5025402;28;20540;-75
2022/11/27 03:49:44;;;;;;;19.67;14.20;;;0.00;99.90;;;-0.29;91.66;99120.50;5030697;28;20467;-75
2022/11/27 03:52:21;;;;;;;26.70;14.43;;;0.00;99.90;;;-0.47;91.86;99098.03;5026531;28;20863;-74
2022/11/27 03:54:59;;;;;;;19.77;14.67;;;0.00;99.90;;;-0.57;92.43;99100.56;5028761;28;20931;-76
2022/11/27 03:57:34;;;;;;;18.00;12.30;;;0.00;99.90;;;-0.36;92.00;99115.78;5039875;28;20518;-74
2022/11/27 04:00:06;;;;;;;17.13;12.03;;;0.00;99.90;;;-0.52;91.93;99108.16;5026568;28;20473;-73
2022/11/27 04:02:44;;;;;;;17.57;11.07;;;-0.10;99.90;;;-0.49;92.16;99126.53;5033027;28;20455;-75
2022/11/27 04:05:14;;;;;;;15.23;11.40;;;-0.20;99.90;;;-0.53;91.67;99122.38;5037668;28;20469;-74
2022/11/27 04:07:41;;;;;;;14.90;10.80;;;-0.20;99.90;;;-0.51;92.07;99125.78;5034570;28;20451;-73
2022/11/27 04:10:11;;;;;;;17.10;10.13;;;-0.30;99.90;;;-0.54;91.66;99126.00;5039771;28;20460;-73
2022/11/27 04:12:38;;;;;;;14.40;11.20;;;-0.40;99.90;;;-0.69;92.47;99120.06;5027225;28;20476;-75
2022/11/27 04:15:07;;;;;;;15.07;11.63;;;-0.40;99.90;;;-0.67;92.47;99116.34;5029023;28;20455;-75
2022/11/27 04:17:35;;;;;;;16.77;11.27;;;-0.50;99.90;;;-0.63;92.30;99128.41;5044976;28;20461;-73
2022/11/27 04:20:05;;;;;;;16.17;10.40;;;-0.50;99.90;;;-0.64;92.81;99120.56;5029710;28;20472;-74
2022/11/27 04:22:32;;;;;;;13.70;9.90;;;-0.40;99.90;;;-0.67;93.13;99121.66;5030109;28;20461;-74
2022/11/27 04:25:01;;;;;;;16.40;10.50;;;-0.40;99.90;;;-0.84;92.96;99104.34;5027809;28;20459;-74
2022/11/27 04:27:28;;;;;;;15.90;10.73;;;-0.30;99.90;;;-0.94;93.49;99098.88;5029497;28;20452;-74
2022/11/27 04:29:56;;;;;;;17.00;10.93;;;-0.30;99.90;;;-0.81;93.73;99103.28;5029005;28;20453;-73
2022/11/27 04:32:23;;;;;;;14.00;10.40;;;-0.30;99.90;;;-0.62;93.01;99122.13;5042763;28;20475;-74
2022/11/27 04:34:50;;;;;;;17.87;10.80;;;-0.30;99.90;;;-1.19;93.17;99041.53;5027104;28;20461;-73
2022/11/27 04:37:19;;;;;;;14.47;9.93;;;-0.40;99.90;;;-0.54;92.75;99126.00;5026384;28;20466;-73
2022/11/27 04:39:46;;;;;;;13.90;10.80;;;-0.40;99.90;;;-0.55;92.37;99127.84;5023519;28;20841;-74
2022/11/27 04:42:14;;;;;;;15.00;9.67;;;-0.40;99.90;;;-1.04;92.65;99048.31;5027889;28;20470;-74
2022/11/27 04:44:41;;;;;;;15.77;9.63;;;-0.50;99.90;;;-0.62;92.98;99119.47;5043469;28;20452;-74
2022/11/27 04:47:08;;;;;;;15.13;9.80;;;-0.40;99.90;;;-0.70;92.33;99100.63;5030384;28;20459;-74
2022/11/27 04:49:36;;;;;;;19.17;11.40;;;-0.50;99.90;;;-0.57;92.41;99119.97;5036489;28;20466;-75
2022/11/27 04:52:03;;;;;;;16.40;11.67;;;-0.40;99.90;;;-0.54;92.72;99120.69;5031959;28;20518;-73
2022/11/27 04:54:32;;;;;;;18.00;11.83;;;-0.30;99.90;;;-0.64;92.33;99092.22;5043451;28;20448;-73
2022/11/27 04:56:59;;;;;;;13.93;9.40;;;-0.40;99.90;;;-0.62;92.41;99119.47;5044789;28;21292;-74
2022/11/27 04:59:27;;;;;;;17.53;11.20;;;-0.40;99.90;;;-0.54;92.29;99136.63;5029574;28;20462;-74
2022/11/27 05:01:54;;;;;;;13.47;10.47;;;-0.40;99.90;;;-1.16;92.37;99057.19;5028347;28;20935;-74
2022/11/27 05:04:22;;;;;;;16.40;10.87;;;-0.50;99.90;;;-0.66;92.71;99133.97;5027628;28;20464;-76
2022/11/27 05:06:50;;;;;;;12.73;9.53;;;-0.50;99.90;;;-0.71;92.28;99117.50;5031375;28;20444;-74
2022/11/27 05:09:18;;;;;;;17.53;9.40;;;-0.60;99.90;;;-0.63;92.32;99128.41;5030812;28;20510;-74
2022/11/27 05:11:46;;;;;;;16.30;11.53;;;-0.60;99.90;;;-0.63;91.30;99119.59;5046829;28;20528;-74
2022/11/27 05:14:18;;;;;;;14.30;10.27;;;-0.50;99.90;;;-0.62;90.88;99121.28;5038579;28;20519;-74
2022/11/27 05:16:48;;;;;;;14.33;10.73;;;-0.40;99.90;;;-0.57;90.58;99133.25;5051397;28;20478;-75
2022/11/27 05:19:18;;;;;;;15.23;10.27;;;-0.40;99.90;;;-0.55;90.80;99130.47;5032381;28;20463;-73
2022/11/27 05:21:46;;;;;;;17.07;11.10;;;-0.30;99.90;;;-0.63;90.54;99120.44;5029619;28;20682;-73
2022/11/27 05:24:15;;;;;;;14.13;10.17;;;-0.30;99.90;;;-0.60;90.33;99116.72;5032590;28;20452;-73
2022/11/27 05:26:43;;;;;;;12.57;10.20;;;-0.40;99.90;;;-0.54;90.05;99116.25;5033392;28;20947;-73
2022/11/27 05:29:12;;;;;;;16.13;10.80;;;-0.30;99.90;;;-0.65;91.47;99114.41;5023329;28;20506;-73
2022/11/27 05:31:40;;;;;;;13.43;10.03;;;-0.40;99.90;;;-0.56;90.48;99112.88;5028306;28;21027;-73
2022/11/27 05:34:07;;;;;;;15.27;10.20;;;-0.40;99.90;;;-0.63;90.45;99119.59;5047676;28;20452;-74
2022/11/27 05:36:35;;;;;;;14.27;9.53;;;-0.40;99.90;;;-1.11;90.65;99044.44;5032051;28;20459;-75
2022/11/27 05:39:06;;;;;;;13.97;9.63;;;-0.50;99.90;;;-0.77;90.78;99094.09;5046568;28;20459;-73
2022/11/27 05:41:34;;;;;;;15.80;10.97;;;-0.50;99.90;;;-0.60;90.44;99122.88;5033444;28;20456;-73
2022/11/27 05:44:02;;;;;;;15.13;10.20;;;-0.50;99.90;;;-1.21;89.59;99025.72;5032148;28;20466;-74
2022/11/27 05:46:31;;;;;;;15.10;10.30;;;-0.50;99.90;;;-0.72;89.69;99116.69;5032081;28;20454;-71
2022/11/27 05:48:58;;;;;;;13.50;10.00;;;-0.60;99.90;;;-0.77;89.77;99125.97;5028444;28;21394;-72
2022/11/27 05:51:25;;;;;;;14.70;10.80;;;-0.70;99.90;;;-0.75;91.02;99126.69;5031572;28;20550;-72
2022/11/27 05:53:53;;;;;;;16.20;10.70;;;-0.70;99.90;;;-0.70;91.55;99129.00;5039432;28;20470;-72
2022/11/27 05:56:20;;;;;;;17.30;11.07;;;-0.60;99.90;;;-0.78;90.94;99108.34;5037346;28;20456;-69
2022/11/27 05:58:50;;;;;;;17.50;12.50;;;-0.60;99.90;;;-0.77;92.14;99115.34;5027578;28;20518;-70
2022/11/27 06:01:18;;;;;;;17.80;12.00;;;-0.60;99.90;;;-0.83;91.95;99091.91;5022725;28;20500;-67
2022/11/27 06:03:47;;;;;;;18.10;12.40;;;-0.50;99.90;;;-0.64;91.51;99113.44;5024681;28;20890;-68
2022/11/27 06:06:17;;;;;;;17.67;12.60;;;-0.50;99.90;;;-0.62;91.36;99108.88;5026499;28;20460;-70
2022/11/27 06:08:47;;;;;;;19.00;13.00;;;-0.50;99.90;;;-0.69;91.98;99115.59;5039657;28;20557;-69
2022/11/27 06:11:17;;;;;;;17.40;12.80;;;-0.40;99.90;;;-0.69;91.77;99107.63;5015328;28;20458;-70
2022/11/27 06:13:44;;;;;;;17.87;12.27;;;-0.40;99.90;;;-0.68;91.46;99104.03;5042344;28;20486;-68
2022/11/27 06:16:15;;;;;;;18.47;12.57;;;-0.40;99.90;;;-0.68;91.14;99106.69;5020448;28;20621;-68
2022/11/27 06:18:42;;;;;;;16.10;11.10;;;-0.40;99.90;;;-0.68;91.62;99109.34;5025568;28;20469;-69
2022/11/27 06:21:13;;;;;;;16.60;11.47;;;-0.40;99.90;;;-0.71;90.70;99106.91;5022717;28;20454;-69
2022/11/27 06:23:42;;;;;;;16.87;11.63;;;-0.40;99.90;;;-0.72;91.27;99116.69;5022812;28;20452;-70
2022/11/27 06:26:14;;;;;;;17.83;13.13;;;-0.50;99.90;;;-0.70;91.51;99121.84;5024129;28;20455;-68
2022/11/27 06:28:42;;;;;;;19.30;12.67;;;-0.50;99.90;;;-0.79;91.58;99114.59;5023987;28;20488;-69
2022/11/27 06:31:12;;;;;;;20.97;13.73;;;-0.50;99.90;;;-0.98;92.13;99118.66;5022115;28;20454;-68
2022/11/27 06:33:40;;;;;;;16.07;12.10;;;-0.50;99.90;;;-0.89;92.13;99111.81;5020859;28;20495;-68
2022/11/27 06:36:10;;;;;;;18.83;12.43;;;-0.50;99.90;;;-1.02;92.81;99106.56;5025231;28;20466;-68
2022/11/27 06:38:38;;;;;;;20.63;12.30;;;-0.50;99.90;;;-1.08;92.45;99114.97;5024690;28;21248;-68
2022/11/27 06:41:08;;;;;;;20.20;12.40;;;-0.60;99.90;;;-1.09;93.05;99123.91;5020329;28;20457;-67
2022/11/27 06:43:36;;;;;;;15.03;11.53;;;-0.60;99.90;;;-1.05;93.00;99104.13;5038907;28;20483;-68
2022/11/27 06:46:05;;;;;;;20.30;13.30;;;-0.60;99.90;;;-1.07;92.87;99103.41;5024107;28;20701;-69
2022/11/27 06:48:33;;;;;;;17.63;12.17;;;-0.60;99.90;;;-0.93;93.38;99121.81;5031623;28;20478;-67
2022/11/27 06:51:02;;;;;;;16.80;12.17;;;-0.50;99.90;;;-0.64;93.11;99116.09;5016629;28;20948;-69
2022/11/27 06:53:31;;;;;;;20.77;12.20;;;-0.40;99.90;;;-0.62;93.20;99102.69;5025894;28;20529;-68
2022/11/27 06:55:58;;;;;;;20.07;12.87;;;-0.30;99.90;;;-0.64;94.00;99105.47;5016791;28;20590;-68
2022/11/27 06:58:25;;;;;;;18.37;12.57;;;-0.20;99.90;;;-0.49;93.39;99105.28;5014864;28;20472;-68
2022/11/27 07:00:58;;;;;;;21.60;13.93;;;-0.10;99.90;;;-0.34;93.57;99098.78;4980543;28;1143256;-68
2022/11/27 07:03:25;;;;;;;19.23;13.17;;;0.00;99.90;;;-0.17;94.15;99097.44;5025889;28;20195;-68
2022/11/27 07:05:53;;;;;;;28.97;14.47;;;0.10;99.90;;;-0.08;94.06;99092.38;5019882;28;20451;-69
2022/11/27 07:08:21;;;;;;;27.77;14.80;;;0.30;99.90;;;-0.06;94.34;99077.16;5017277;28;20512;-68
2022/11/27 07:10:49;;;;;;;32.37;15.90;;;0.30;99.90;;;-0.06;94.61;99080.69;5026051;28;21019;-69
2022/11/27 07:13:16;;;;;;;30.20;15.23;;;0.40;99.90;;;-0.02;94.40;99084.78;5022083;28;20475;-67
2022/11/27 07:15:44;;;;;;;28.17;15.67;;;0.40;99.90;;;-0.03;94.32;99077.78;5021508;28;20529;-70
2022/11/27 07:18:11;;;;;;;37.73;17.83;;;0.40;99.90;;;0.03;94.67;99078.25;5037373;28;20455;-69
2022/11/27 07:20:38;;;;;;;31.73;16.17;;;0.40;99.90;;;0.09;94.03;99064.50;5021884;28;20467;-72
2022/11/27 07:23:05;;;;;;;33.70;16.17;;;0.50;99.90;;;0.27;94.14;99062.16;5027585;28;20457;-68
2022/11/27 07:25:32;;;;;;;40.83;17.90;;;0.60;99.90;;;0.50;96.13;99067.44;5020307;28;20928;-69
2022/11/27 07:28:01;;;;;;;29.40;14.87;;;0.70;99.90;;;0.51;94.27;99069.13;5017881;28;20461;-71
2022/11/27 07:30:28;;;;;;;34.57;17.60;;;0.80;99.90;;;0.45;94.08;99059.81;5023953;28;20456;-67
2022/11/27 07:32:56;;;;;;;33.77;17.13;;;0.80;99.90;;;0.62;94.05;99065.56;5026291;28;20503;-68
2022/11/27 07:35:23;;;;;;;41.83;19.07;;;0.90;99.90;;;0.35;94.70;99057.06;5020399;28;20517;-67
2022/11/27 07:37:50;;;;;;;47.13;17.93;;;0.80;99.90;;;0.73;94.95;99057.56;5022557;28;20465;-72
2022/11/27 07:40:18;;;;;;;37.70;17.90;;;0.90;99.90;;;0.92;94.12;99058.69;5022531;28;20476;-69
2022/11/27 07:42:45;;;;;;;29.13;16.20;;;1.10;99.90;;;1.22;94.36;99062.41;5021433;28;21089;-67
2022/11/27 07:45:13;;;;;;;37.23;18.10;;;1.30;99.90;;;1.22;94.30;99057.94;5017705;28;21008;-69
2022/11/27 07:47:41;;;;;;;35.67;14.50;;;1.40;99.90;;;1.11;94.40;99053.50;5022438;28;20466;-71
2022/11/27 07:50:10;;;;;;;39.10;16.53;;;1.40;99.90;;;1.34;94.72;99060.50;5024516;28;20481;-69
2022/11/27 07:52:38;;;;;;;34.93;15.93;;;1.50;99.90;;;1.27;94.61;99054.88;5020383;28;20489;-68
2022/11/27 07:55:05;;;;;;;35.30;16.93;;;1.60;99.90;;;1.26;95.24;99055.84;5016516;28;20465;-67
2022/11/27 07:57:33;;;;;;;31.93;14.93;;;1.60;99.90;;;1.33;95.41;99054.34;5020045;28;20460;-69
2022/11/27 08:00:00;;;;;;;33.70;14.73;;;1.70;99.90;;;1.34;95.43;99056.03;5021398;28;20480;-69
2022/11/27 08:02:28;;;;;;;49.07;14.77;;;1.60;99.90;;;1.46;95.21;99058.66;5025219;28;20920;-67
2022/11/27 08:04:55;;;;;;;37.73;15.80;;;1.70;99.90;;;1.37;95.70;99060.28;5020969;28;20450;-67
2022/11/27 08:07:28;;;;;;;33.13;14.10;;;1.70;99.90;;;1.37;95.45;99055.78;5021817;28;20459;-69
2022/11/27 08:09:56;;;;;;;30.17;14.53;;;1.70;99.90;;;1.45;95.22;99052.47;5023560;28;20560;-69
2022/11/27 08:12:23;;;;;;;34.77;15.70;;;1.90;99.90;;;1.35;95.90;99062.19;5022556;28;20480;-69
2022/11/27 08:14:51;;;;;;;30.03;13.53;;;1.80;99.90;;;1.39;95.78;99061.81;5022647;28;20559;-68
2022/11/27 08:17:18;;;;;;;30.53;15.70;;;1.80;99.90;;;1.74;95.25;99058.91;5023485;28;20475;-67
2022/11/27 08:19:47;;;;;;;34.30;15.37;;;1.90;99.90;;;1.89;94.83;99054.06;5023511;28;20998;-68
2022/11/27 08:22:18;;;;;;;28.57;14.87;;;2.10;99.90;;;1.70;94.35;99045.84;5018907;28;20466;-67
2022/11/27 08:24:46;;;;;;;27.80;14.30;;;2.10;99.90;;;1.75;94.70;99052.63;5008560;28;20464;-69
2022/11/27 08:27:15;;;;;;;30.20;15.10;;;2.10;99.90;;;1.90;94.65;99055.75;5034773;28;20619;-72
2022/11/27 08:29:43;;;;;;;34.13;16.77;;;2.10;99.90;;;1.66;95.29;99055.09;5021803;28;20485;-69
2022/11/27 08:32:10;;;;;;;29.20;14.47;;;2.10;99.90;;;1.73;94.67;99066.06;5020397;28;20449;-69
2022/11/27 08:34:37;;;;;;;27.90;14.03;;;2.10;99.90;;;1.88;94.54;99063.06;5025767;28;20465;-70
2022/11/27 08:37:07;;;;;;;27.23;13.77;;;2.20;99.90;;;1.96;94.91;99058.72;5032985;28;21623;-68
2022/11/27 08:39:34;;;;;;;27.57;14.93;;;2.20;99.90;;;2.18;93.99;99067.50;5040529;28;20952;-69
2022/11/27 08:42:02;;;;;;;27.17;14.50;;;2.40;99.90;;;1.91;94.21;99063.63;5020504;28;20466;-70
2022/11/27 08:44:32;;;;;;;25.77;13.10;;;2.30;99.90;;;2.02;94.45;99069.81;5016654;28;21149;-71
2022/11/27 08:47:00;;;;;;;28.40;14.77;;;2.30;99.90;;;1.98;94.44;99059.44;5019803;28;20495;-71
2022/11/27 08:49:27;;;;;;;27.87;13.77;;;2.40;99.90;;;2.18;93.78;99056.81;5020473;28;20829;-68
2022/11/27 08:51:54;;;;;;;29.73;13.50;;;2.50;99.90;;;2.02;94.62;99016.50;5023470;28;20511;-68
2022/11/27 08:54:22;;;;;;;23.43;13.67;;;2.50;99.90;;;2.22;93.27;99042.25;5021425;28;20576;-68
2022/11/27 08:56:51;;;;;;;20.87;12.90;;;2.50;99.90;;;2.34;92.89;99037.66;5020751;28;20458;-69
2022/11/27 08:59:19;;;;;;;27.10;13.93;;;2.60;99.90;;;2.54;92.83;99045.66;5021053;28;20462;-71
2022/11/27 09:01:46;;;;;;;27.30;13.73;;;2.70;99.90;;;2.52;93.33;99037.81;5016259;28;20454;-75
2022/11/27 09:04:13;;;;;;;22.93;12.60;;;2.70;99.90;;;2.63;91.40;99030.66;5014517;28;20481;-73
2022/11/27 09:06:43;;;;;;;25.70;13.33;;;2.90;99.90;;;2.42;92.60;99034.28;5022981;28;20783;-73
2022/11/27 09:09:10;;;;;;;20.10;12.90;;;2.70;99.90;;;2.61;91.85;99038.81;5017262;28;20469;-70
2022/11/27 09:11:38;;;;;;;28.70;16.00;;;2.80;99.90;;;2.71;91.16;99035.28;5016926;28;20465;-73
2022/11/27 09:14:07;;;;;;;22.47;12.30;;;3.00;99.90;;;2.79;91.66;99044.28;5030050;28;20477;-67
2022/11/27 09:16:35;;;;;;;23.10;14.37;;;3.00;99.90;;;2.43;90.87;99035.97;5017678;28;20460;-70
2022/11/27 09:19:03;;;;;;;19.23;13.03;;;2.90;99.90;;;2.62;91.72;99051.19;5033344;28;20846;-76
2022/11/27 09:21:32;;;;;;;22.40;13.17;;;2.90;99.90;;;2.62;91.43;99050.31;5018293;28;20720;-71
2022/11/27 09:24:01;;;;;;;27.13;12.57;;;2.90;99.90;;;2.80;92.02;99051.31;5020601;28;20457;-72
2022/11/27 09:26:29;;;;;;;21.13;12.97;;;3.00;99.90;;;3.15;90.49;99050.88;5034623;28;20536;-76
2022/11/27 09:28:59;;;;;;;20.37;12.47;;;3.20;99.90;;;3.09;90.11;99036.28;5016351;28;20546;-70
2022/11/27 09:31:26;;;;;;;16.67;8.80;;;3.20;99.90;;;2.90;89.75;99042.47;5031686;28;20446;-70
2022/11/27 09:33:53;;;;;;;15.27;10.77;;;3.20;99.90;;;2.98;89.55;99042.63;5014048;28;20833;-70
2022/11/27 09:36:24;;;;;;;16.63;10.57;;;3.20;99.90;;;3.10;88.49;99038.78;5020272;28;20519;-70
2022/11/27 09:38:52;;;;;;;18.23;10.70;;;3.40;99.90;;;2.94;90.15;99027.84;5023211;28;20453;-70
2022/11/27 09:41:37;;;;;;;15.83;10.10;;;3.20;99.90;;;3.21;89.42;99023.59;5018666;28;20701;-67
2022/11/27 09:44:28;;;;;;;13.87;9.93;;;3.40;99.90;;;3.24;90.01;99025.97;5014557;28;20445;-68
2022/11/27 09:46:59;;;;;;;16.93;10.20;;;3.50;99.90;;;3.16;88.68;99017.84;5019733;28;20473;-68
2022/11/27 09:49:35;;;;;;;16.97;10.23;;;3.50;99.90;;;3.02;88.07;99008.44;5016431;28;20955;-67
2022/11/27 09:52:06;;;;;;;13.07;8.90;;;3.50;99.80;;;3.38;88.88;99016.69;5037326;28;20853;-68
2022/11/27 09:54:38;;;;;;;14.10;10.17;;;3.50;99.90;;;3.21;87.61;99005.75;5021111;28;20473;-68
2022/11/27 09:57:06;;;;;;;12.80;8.00;;;3.60;98.30;;;3.22;87.86;99010.13;5016965;28;20465;-67
2022/11/27 09:59:47;;;;;;;11.60;8.73;;;3.50;99.20;;;3.48;86.95;98995.28;5020470;28;20455;-68
2022/11/27 10:02:18;;;;;;;10.97;8.53;;;3.70;97.90;;;3.39;86.08;98999.66;5028164;28;20544;-67
2022/11/27 10:04:46;;;;;;;17.67;10.43;;;3.70;96.00;;;3.43;87.37;98984.19;5025235;28;21164;-67
2022/11/27 10:07:26;;;;;;;13.30;9.63;;;3.70;96.80;;;3.66;86.86;98990.84;5045697;28;20438;-67
2022/11/27 10:10:12;;;;;;;15.50;10.27;;;3.80;97.30;;;3.89;86.20;98979.78;5027511;28;21105;-68
2022/11/27 10:12:51;;;;;;;15.40;10.40;;;3.90;97.20;;;4.08;84.77;98991.34;5017219;28;20461;-68
2022/11/27 10:15:37;;;;;;;16.73;11.10;;;4.10;95.20;;;3.90;85.29;98983.28;5026866;28;20971;-68
2022/11/27 10:18:11;;;;;;;13.70;9.53;;;4.00;95.70;;;3.18;84.32;98927.75;5021103;28;21013;-70
2022/11/27 10:20:45;;;;;;;14.10;9.97;;;4.00;93.00;;;3.45;86.24;98992.91;5028018;28;20468;-69
2022/11/27 10:23:24;;;;;;;14.40;9.57;;;3.90;94.10;;;3.35;85.63;98990.28;5026697;28;20464;-67
2022/11/27 10:25:56;;;;;;;12.60;8.90;;;3.70;94.10;;;3.41;85.71;98984.34;5042266;28;20457;-67